METAR Data
IDs: Format: Raw Decoded Include TAF

Data at: 1210 UTC 23 Sep 2018

KRNP 231156Z AUTO 00000KT 7SM CLR 06/06 A3024 RMK AO2 T00570057 10076 20055
KRNP 231135Z AUTO 00000KT 4SM BR CLR 06/06 A3024 RMK AO2 T00570057
KRNP 231115Z AUTO 00000KT 5SM BR CLR 06/06 A3023 RMK AO2 T00570057
KRNP 231057Z AUTO 00000KT 1 1/4SM BR VV007 06/06 A3023 RMK AO2 T00610061
KRNP 231035Z AUTO 00000KT 3SM BR CLR 06/06 A3023 RMK AO2 T00630063
KRNP 231015Z AUTO 00000KT 3/4SM BR VV005 06/06 A3023 RMK AO2 T00590059
KRNP 230955Z AUTO 00000KT 2 1/2SM BR CLR 06/06 A3023 RMK AO2 T00610061
KRNP 230935Z AUTO 00000KT 7SM CLR 06/06 A3023 RMK AO2 T00610061
KRNP 230915Z AUTO 00000KT 2SM BR CLR 06/06 A3023 RMK AO2 T00640064
KRNP 230855Z AUTO 00000KT 1 3/4SM BR VV007 06/06 A3022 RMK AO2 VIS 3/4V5 T00630063
KRNP 230835Z AUTO 00000KT 5SM BR CLR 06/06 A3022 RMK AO2 T00640064
KRNP 230815Z AUTO 00000KT 5SM BR CLR 07/07 A3022 RMK AO2 T00670067
KRNP 230755Z AUTO 00000KT 1SM BR VV007 07/07 A3022 RMK AO2 T00680068
KRNP 230735Z AUTO 00000KT 3/4SM BR VV005 07/07 A3022 RMK AO2 T00660066
KRNP 230715Z AUTO 00000KT 2 1/2SM BR CLR 07/07 A3022 RMK AO2 VIS 1V5 T00690069
KRNP 230655Z AUTO 00000KT 7SM CLR 07/07 A3022 RMK AO2 T00710071
KRNP 230635Z AUTO 00000KT 7SM CLR 07/07 A3022 RMK AO2 T00680068
KRNP 230615Z AUTO 00000KT 7SM CLR 07/07 A3022 RMK AO2 T00710071
KRNP 230555Z AUTO 00000KT 5SM BR CLR 07/07 A3022 RMK AO2 T00710071 10121 20071
KRNP 230535Z AUTO 00000KT 7SM CLR 08/07 A3023 RMK AO2 T00750073
KRNP 230515Z AUTO 00000KT 4SM BR CLR 07/07 A3023 RMK AO2 T00720069
KRNP 230455Z AUTO 00000KT 10SM CLR 08/08 A3023 RMK AO2 T00780075 401840077
KRNP 230435Z AUTO 00000KT 7SM CLR 08/07 A3023 RMK AO2 T00790074
KRNP 230415Z AUTO 00000KT 10SM CLR 08/07 A3024 RMK AO2 T00770071
KRNP 230355Z AUTO 00000KT 10SM CLR 09/08 A3023 RMK AO2 T00870082
KRNP 230335Z AUTO 00000KT 10SM CLR 08/08 A3023 RMK AO2 T00840078
KRNP 230315Z AUTO 00000KT 10SM CLR 09/08 A3023 RMK AO2 T00870079
KRNP 230255Z AUTO 00000KT 10SM CLR 09/08 A3023 RMK AO2 T00900079
KRNP 230235Z AUTO 00000KT 10SM CLR 10/09 A3023 RMK AO2 T00950085
KRNP 230215Z AUTO 00000KT 10SM CLR 09/08 A3024 RMK AO2 T00890079
KRNP 230155Z AUTO 00000KT 10SM CLR 10/09 A3024 RMK AO2 T01000086
KRNP 230135Z AUTO 00000KT 10SM CLR 10/09 A3024 RMK AO2 T00980085
KRNP 230115Z AUTO 00000KT 10SM CLR 10/09 A3024 RMK AO2 T00990085
KRNP 230055Z AUTO 00000KT 10SM CLR 10/08 A3023 RMK AO2 T01030083
KRNP 230035Z AUTO 00000KT 10SM CLR 11/09 A3023 RMK AO2 T01100086
KRNP 230015Z AUTO 00000KT 10SM CLR 12/08 A3023 RMK AO2 T01150075
KRNP 222355Z AUTO 00000KT 7SM CLR 12/09 A3023 RMK AO2 T01220085 10184 20122
KRNP 222335Z AUTO 00000KT 10SM CLR 13/09 A3024 RMK AO2 T01340086
KRNP 222315Z AUTO 00000KT 10SM CLR 16/09 A3024 RMK AO2 T01570085
KRNP 222255Z AUTO 00000KT 10SM CLR 17/06 A3024 RMK AO2 T01690058
KRNP 222235Z AUTO 00000KT 10SM CLR 17/04 A3024 RMK AO2 T01740044
KRNP 222215Z AUTO 00000KT 10SM CLR 18/05 A3024 RMK AO2 T01800052
KRNP 222155Z AUTO 00000KT 10SM CLR 18/05 A3024 RMK AO2 T01780051
KRNP 222135Z AUTO 00000KT 10SM CLR 18/05 A3024 RMK AO2 T01780047
KRNP 222115Z AUTO 00000KT 10SM CLR 18/04 A3024 RMK AO2 T01760042
KRNP 222055Z AUTO 00000KT 10SM CLR 18/04 A3025 RMK AO2 T01830037
KRNP 222035Z AUTO 33003KT 10SM CLR 18/04 A3025 RMK AO2 T01810039
KRNP 222015Z AUTO 00000KT 10SM CLR 18/04 A3026 RMK AO2 T01770037
KRNP 221955Z AUTO 00000KT 10SM CLR 18/05 A3027 RMK AO2 T01750046
KRNP 221935Z AUTO 15004KT 10SM CLR 17/05 A3028 RMK AO2 T01710052
KRNP 221915Z AUTO 00000KT 10SM CLR 17/06 A3028 RMK AO2 T01730055
KRNP 221855Z AUTO 00000KT 10SM CLR 17/05 A3029 RMK AO2 T01660052
KRNP 221835Z AUTO 31005KT 10SM CLR 17/05 A3030 RMK AO2 T01650047
KRNP 221815Z AUTO 21003KT 10SM CLR 17/06 A3031 RMK AO2 T01650055
KRNP 221755Z AUTO 03004KT 7SM CLR 16/06 A3032 RMK AO2 T01610057 10162 20082
KRNP 221735Z AUTO 00000KT 10SM SCT041 16/06 A3032 RMK AO2 T01590056
KRNP 221715Z AUTO 07005KT 10SM SCT041 16/06 A3032 RMK AO2 T01600057
KRNP 221658Z AUTO 36003KT 10SM SCT037 16/05 A3033 RMK AO2 T01560052
KRNP 221635Z AUTO 01004KT 10SM SCT037 15/05 A3034 RMK AO2 T01500053
KRNP 221615Z AUTO 09005G14KT 10SM SCT035 15/05 A3034 RMK AO2 T01510052
KRNP 221555Z AUTO 09006KT 10SM SCT031 14/06 A3034 RMK AO2 T01430059
KRNP 221535Z AUTO 07003KT 10SM CLR 14/06 A3035 RMK AO2 T01400064
KRNP 221515Z AUTO 05006KT 10SM CLR 14/07 A3035 RMK AO2 T01350066
KRNP 221455Z AUTO 36006KT 10SM CLR 13/07 A3035 RMK AO2 T01300065
KRNP 221435Z AUTO 03007KT 10SM CLR 12/07 A3036 RMK AO2 T01230066
KRNP 221415Z AUTO 03005KT 10SM CLR 11/06 A3036 RMK AO2 T01120063
KRNP 221355Z AUTO 36005KT 10SM CLR 10/06 A3035 RMK AO2 T01030061
KRNP 221335Z AUTO 36004KT 10SM CLR 10/06 A3036 RMK AO2 T00970056
KRNP 221315Z AUTO 36005KT 10SM CLR 09/06 A3035 RMK AO2 T00930055
KRNP 221255Z AUTO 35005KT 10SM CLR 09/05 A3035 RMK AO2 T00850053
KRNP 221235Z AUTO 35005KT 10SM CLR 08/05 A3035 RMK AO2 T00840054
KRNP 221215Z AUTO 35006KT 10SM CLR 08/05 A3034 RMK AO2 T00820053
KRNP 221155Z AUTO 36004KT 10SM CLR 08/05 A3034 RMK AO2 T00820052 10118 20082
KRNP 221135Z AUTO 35004KT 10SM CLR 09/05 A3033 RMK AO2 T00850050
KRNP 221115Z AUTO 36005KT 10SM SCT029 09/05 A3032 RMK AO2 T00900051
KRNP 221055Z AUTO 36006KT 10SM OVC029 09/05 A3032 RMK AO2 T00930052
KRNP 221035Z AUTO 36005KT 10SM BKN029 09/05 A3032 RMK AO2 T00920054
KRNP 221015Z AUTO 35004KT 10SM SCT031 09/06 A3032 RMK AO2 T00920056
KRNP 220955Z AUTO 00000KT 10SM BKN031 10/06 A3031 RMK AO2 T00950060
KRNP 220935Z AUTO 36004KT 10SM OVC033 10/06 A3031 RMK AO2 T01000060
KRNP 220915Z AUTO 01004KT 10SM OVC035 10/06 A3030 RMK AO2 T01020059
KRNP 220855Z AUTO 36005KT 10SM SCT035 10/06 A3029 RMK AO2 T01030056
KRNP 220835Z AUTO 34006KT 10SM CLR 11/06 A3028 RMK AO2 T01050057
KRNP 220815Z AUTO 35004KT 10SM CLR 11/06 A3028 RMK AO2 T01060061
KRNP 220755Z AUTO 35005KT 10SM SCT031 11/07 A3027 RMK AO2 T01100067
KRNP 220735Z AUTO 34005KT 10SM SCT033 11/07 A3026 RMK AO2 T01120070
KRNP 220715Z AUTO 35005KT 10SM BKN033 12/07 A3025 RMK AO2 T01160071
KRNP 220655Z AUTO 34005KT 10SM OVC033 12/07 A3025 RMK AO2 T01180072
KRNP 220635Z AUTO 33005KT 10SM OVC033 12/07 A3025 RMK AO2 T01170074
KRNP 220615Z AUTO 33005KT 10SM SCT033 11/07 A3024 RMK AO2 T01140071
KRNP 220555Z AUTO 32005KT 10SM CLR 12/07 A3024 RMK AO2 T01150071 10180 20115
KRNP 220535Z AUTO 32008KT 10SM CLR 12/07 A3024 RMK AO2 T01200072
KRNP 220515Z AUTO 32007KT 10SM CLR 12/07 A3023 RMK AO2 T01220073
KRNP 220455Z AUTO 32008KT 10SM CLR 13/07 A3022 RMK AO2 T01250070 402660125
KRNP 220435Z AUTO 34010G17KT 10SM CLR 13/07 A3021 RMK AO2 T01300068
KRNP 220415Z AUTO 33008G15KT 10SM CLR 14/07 A3021 RMK AO2 T01350071
KRNP 220355Z AUTO 33005KT 10SM CLR 14/07 A3020 RMK AO2 T01360072
KRNP 220335Z AUTO 32008KT 10SM SCT048 14/07 A3018 RMK AO2 T01410070
KRNP 220315Z AUTO 31009G14KT 10SM SCT050 14/07 A3016 RMK AO2 T01420073
KRNP 220255Z AUTO 32011G18KT 10SM SCT029 SCT036 15/08 A3015 RMK AO2 T01470079
KRNP 220235Z AUTO 34007KT 10SM SCT029 SCT036 SCT050 15/10 A3013 RMK AO2 T01510101
KRNP 220215Z AUTO 32011G19KT 10SM SCT040 BKN050 16/10 A3012 RMK AO2 T01600097
KRNP 220155Z AUTO 31010KT 10SM SCT032 BKN040 BKN065 17/10 A3010 RMK AO2 T01660097
KRNP 220135Z AUTO 29012G17KT 10SM SCT033 SCT039 BKN065 17/11 A3007 RMK AO2 T01740112
KRNP 220115Z AUTO 28012G17KT 10SM SCT065 17/11 A3006 RMK AO2 T01720111
KRNP 220055Z AUTO 28011G15KT 10SM CLR 17/11 A3004 RMK AO2 T01720112
KRNP 220035Z AUTO 28009KT 10SM SCT038 SCT046 SCT055 18/11 A3003 RMK AO2 T01750113
KRNP 220015Z AUTO 28009G17KT 10SM SCT044 BKN065 18/11 A3001 RMK AO2 T01800110